Hauptseite
METAR-TAF:

METAR-TAF

Flughäfen :

Heeresflugplatz Altenstadt

Altenstadt, Deutschland

Breite: 47-50N, Länge: 010-52E, Höhe: 739 m

Beobachtung

Neuester Wetterbericht von vor 32 Minuten, um 20:20 UTC
Wind 1 kt aus Nord/Nordwest
Temperatur 4°C
Luftfeuchtigkeit 65%
Luftdruck 1019 hPa

METAR: ETHA 032020Z AUTO 34001KT //// // ////// 04/M02 Q1019 ///

Zeit: 22:52 (20:52 UTC)

Prognose

Neuester Wetterbericht von vor 13 Stunden und 22 Minuten, um 07:30 UTC
Gültige Prognose vom 03 um 08 UTC bis 03 um 17 UTC
Wind 10 kt aus West
Sichtweite 10 km oder mehr
Aufgelockert bewölkt in der Höhe von 6000 ft
Übergehend zu
vom 03 um 14 UTC bis 03 um 16 UTC
Wind 10 kt aus West/Nordwest, Böen bis zu 20 kt
Sichtweite: 0920 m
Leicht bewölkt in der Höhe von 2500 ft
Durchbrochene Bewölkung in der Höhe von 6000 ft

TAF: ETHA 030730Z 0308/0317 28010KT 9999 NSW SCT060 BECMG 0314/0316 30010G20KT 9999 NSW FEW025 BKN060 CANCEL 0920

Wetterbeobachtungen und Prognosen von mehr als 4000 Flughäfen (METAR und TAF Bericht).

Die verfügbaren Stationen werden durch gelbe und rote Markierungen auf der Karte dargestellt.

Führen Sie die Maus auf sie, um den Namen der Station zu sehen.

Darauf klicken, um die Beobachtung von Wetterbeobachtungen und Prognosen zu sehen.

Um die Karte zu ändern : klicken Sie auf den grünen Tasten mit einem schwarzen Kreuz Zum Vergrößern, auf den grünen Button mit einem Gedankenstrich zu verkleinern, oder auf die grünen Pfeile für benachbarte Karten.


METAR-TAF: